Time;durP1;ratioP1;P1;durP2;ratioP2;P2;SDS_P1;SDS_P2;PMS_P1;PMS_P2;Temp;Humidity;BMP_temperature;BMP_pressure;BME280_temperature;BME280_humidity;BME280_pressure;Samples;Min_cycle;Max_cycle;Signal;HPM_P1;HPM_P2
2023/09/25 04:06:27;;;;;;;;;18.00;15.67;;;;;;;;6028187;47;10000125;-57
2023/09/25 08:10:41;;;;;;;;;11.50;10.25;;;;;;;;6217208;39;10000357;-66
2023/09/25 08:17:02;;;;;;;;;18.25;16.50;;;;;;;;6486182;39;8918;-66
2023/09/25 08:23:20;;;;;;;;;18.75;15.75;;;;;;;;6485008;39;8942;-67
2023/09/25 08:29:27;;;;;;;;;22.25;19.75;;;;;;;;6486607;39;9161;-67
2023/09/25 08:35:33;;;;;;;;;19.00;16.00;;;;;;;;6484170;39;8886;-67
2023/09/25 08:41:41;;;;;;;;;19.50;17.75;;;;;;;;6488747;31;9004;-68
2023/09/25 08:47:47;;;;;;;;;17.25;14.75;;;;;;;;6486367;39;9023;-68
2023/09/25 08:53:59;;;;;;;;;15.00;13.00;;;;;;;;6488770;39;8928;-66
2023/09/25 09:00:14;;;;;;;;;18.75;18.00;;;;;;;;6487172;39;8966;-66
2023/09/25 09:06:26;;;;;;;;;16.00;13.75;;;;;;;;6488968;39;8926;-66
2023/09/25 09:12:54;;;;;;;;;10.00;10.00;;;;;;;;6487536;39;8975;-65
2023/09/25 09:19:21;;;;;;;;;19.00;15.50;;;;;;;;6487182;46;8924;-67
2023/09/25 09:25:33;;;;;;;;;19.25;16.00;;;;;;;;6488749;46;9065;-68
2023/09/25 09:31:57;;;;;;;;;16.50;15.25;;;;;;;;6486613;39;8888;-67
2023/09/25 09:38:22;;;;;;;;;15.00;14.00;;;;;;;;6487025;31;8959;-65
2023/09/25 09:44:43;;;;;;;;;15.00;13.00;;;;;;;;6485922;39;8945;-68
2023/09/25 09:50:59;;;;;;;;;15.75;14.75;;;;;;;;6485937;46;9010;-66
2023/09/25 09:57:13;;;;;;;;;20.50;16.50;;;;;;;;6485802;39;8924;-67
2023/09/25 10:03:24;;;;;;;;;16.75;16.00;;;;;;;;6486665;46;8945;-67
2023/09/25 10:10:13;;;;;;;;;14.75;13.25;;;;;;;;6485746;46;9024;-68
2023/09/25 10:16:31;;;;;;;;;23.25;23.25;;;;;;;;6487302;31;8882;-67
2023/09/25 10:22:38;;;;;;;;;17.25;16.00;;;;;;;;6488768;39;9846;-65
2023/09/25 10:29:16;;;;;;;;;11.33;11.00;;;;;;;;6488751;39;8909;-67
2023/09/25 10:35:50;;;;;;;;;11.00;10.75;;;;;;;;6487321;39;8964;-66
2023/09/25 10:42:07;;;;;;;;;13.25;12.00;;;;;;;;6485834;39;8997;-67
2023/09/25 10:48:13;;;;;;;;;12.00;11.25;;;;;;;;6484010;46;8955;-67
2023/09/25 10:54:22;;;;;;;;;11.75;10.25;;;;;;;;6485093;39;8929;-65
2023/09/25 11:00:38;;;;;;;;;12.25;11.50;;;;;;;;6482842;39;9611;-67
2023/09/25 11:07:19;;;;;;;;;15.75;15.75;;;;;;;;6485101;39;8940;-65
2023/09/25 11:13:35;;;;;;;;;11.00;11.00;;;;;;;;6483922;39;8921;-66
2023/09/25 11:19:53;;;;;;;;;16.75;14.50;;;;;;;;6484329;31;8974;-66
2023/09/25 11:26:05;;;;;;;;;13.00;10.00;;;;;;;;6485405;39;8952;-67
2023/09/25 11:32:10;;;;;;;;;12.00;12.00;;;;;;;;6484942;46;8969;-66
2023/09/25 11:38:23;;;;;;;;;15.00;13.75;;;;;;;;6483716;39;8959;-67
2023/09/25 11:44:30;;;;;;;;;15.00;13.00;;;;;;;;6483823;39;9622;-65
2023/09/25 11:50:41;;;;;;;;;11.50;11.50;;;;;;;;6485862;31;8971;-66
2023/09/25 11:57:27;;;;;;;;;11.50;11.25;;;;;;;;6484953;39;8943;-65
2023/09/25 12:04:27;;;;;;;;;13.00;12.50;;;;;;;;6484959;39;9116;-67
2023/09/25 12:10:46;;;;;;;;;10.50;8.50;;;;;;;;6484045;39;8949;-66
2023/09/25 12:16:48;;;;;;;;;12.75;11.00;;;;;;;;6488294;31;8989;-66
2023/09/25 12:22:56;;;;;;;;;7.75;7.75;;;;;;;;6489006;31;8953;-66
2023/09/25 12:29:07;;;;;;;;;9.25;9.25;;;;;;;;6489041;39;8953;-65
2023/09/25 12:35:15;;;;;;;;;9.75;9.75;;;;;;;;6486777;39;8921;-66
2023/09/25 12:41:18;;;;;;;;;10.25;10.25;;;;;;;;6487561;46;8948;-67
2023/09/25 12:47:22;;;;;;;;;12.50;11.00;;;;;;;;6489243;31;8905;-66
2023/09/25 12:53:33;;;;;;;;;9.50;8.75;;;;;;;;6488506;39;8913;-66
2023/09/25 12:59:45;;;;;;;;;10.25;10.00;;;;;;;;6489254;39;9691;-66
2023/09/25 13:05:49;;;;;;;;;12.75;12.00;;;;;;;;6488268;46;9063;-66
2023/09/25 13:11:52;;;;;;;;;9.75;8.75;;;;;;;;6488179;31;8936;-65
2023/09/25 13:18:10;;;;;;;;;10.50;9.75;;;;;;;;6488452;31;8933;-65
2023/09/25 13:24:15;;;;;;;;;12.50;11.75;;;;;;;;6487514;31;9027;-66
2023/09/25 13:30:21;;;;;;;;;12.50;12.25;;;;;;;;6487107;31;8913;-66
2023/09/25 13:36:32;;;;;;;;;14.25;12.75;;;;;;;;6485698;39;8932;-67
2023/09/25 13:42:38;;;;;;;;;14.00;11.50;;;;;;;;6485111;39;8969;-65
2023/09/25 13:48:46;;;;;;;;;12.50;10.50;;;;;;;;6487378;39;8916;-66
2023/09/25 13:54:54;;;;;;;;;14.00;12.25;;;;;;;;6488065;39;9052;-67
2023/09/25 14:01:02;;;;;;;;;14.25;12.00;;;;;;;;6490231;39;8995;-68
2023/09/25 14:07:06;;;;;;;;;13.50;12.50;;;;;;;;6490328;39;9017;-65
2023/09/25 14:13:11;;;;;;;;;12.00;12.00;;;;;;;;6489327;39;8881;-64
2023/09/25 14:19:15;;;;;;;;;8.50;8.50;;;;;;;;6489619;39;8886;-64
2023/09/25 14:25:19;;;;;;;;;13.00;13.00;;;;;;;;6489293;39;9043;-65
2023/09/25 14:31:22;;;;;;;;;9.00;8.25;;;;;;;;6489428;31;8996;-59
2023/09/25 14:37:24;;;;;;;;;12.25;12.25;;;;;;;;6489627;39;8949;-58
2023/09/25 14:43:27;;;;;;;;;10.25;10.25;;;;;;;;6489507;39;8933;-58
2023/09/25 14:49:29;;;;;;;;;6.75;6.75;;;;;;;;6489404;46;8881;-59
2023/09/25 14:55:33;;;;;;;;;11.00;11.00;;;;;;;;6490175;39;9461;-58
2023/09/25 15:01:55;;;;;;;;;9.75;8.75;;;;;;;;6488388;46;9024;-57
2023/09/25 15:07:57;;;;;;;;;15.25;12.75;;;;;;;;6489513;39;8877;-58
2023/09/25 15:14:00;;;;;;;;;10.75;9.00;;;;;;;;6489284;46;9951;-58
2023/09/25 15:20:05;;;;;;;;;9.50;9.00;;;;;;;;6490019;31;8919;-56
2023/09/25 15:26:09;;;;;;;;;13.25;11.25;;;;;;;;6488808;39;8926;-59
2023/09/25 15:32:17;;;;;;;;;11.50;10.25;;;;;;;;6490114;39;8876;-60
2023/09/25 15:38:20;;;;;;;;;10.25;9.00;;;;;;;;6489910;39;8939;-58
2023/09/25 15:44:25;;;;;;;;;9.75;9.75;;;;;;;;6488340;39;8904;-61
2023/09/25 15:50:30;;;;;;;;;10.25;9.50;;;;;;;;6489805;46;8916;-59
2023/09/25 15:56:33;;;;;;;;;14.00;14.00;;;;;;;;6489937;31;8931;-59
2023/09/25 16:02:36;;;;;;;;;13.50;11.00;;;;;;;;6489383;39;8936;-59
2023/09/25 16:08:39;;;;;;;;;13.00;9.75;;;;;;;;6489434;47;8930;-60
2023/09/25 16:14:44;;;;;;;;;9.75;9.75;;;;;;;;6488000;47;8976;-59
2023/09/25 16:20:50;;;;;;;;;10.25;10.25;;;;;;;;6489235;39;8861;-57
2023/09/25 16:26:52;;;;;;;;;10.00;10.00;;;;;;;;6488661;47;9016;-57
2023/09/25 16:32:55;;;;;;;;;11.50;10.50;;;;;;;;6488795;39;8926;-58
2023/09/25 16:38:57;;;;;;;;;11.25;11.00;;;;;;;;6488005;39;8916;-60
2023/09/25 16:45:01;;;;;;;;;14.00;12.75;;;;;;;;6488368;31;8912;-58
2023/09/25 16:51:07;;;;;;;;;20.50;17.00;;;;;;;;6488735;39;8877;-59
2023/09/25 16:57:09;;;;;;;;;26.00;22.50;;;;;;;;6488599;39;8919;-58
2023/09/25 17:03:15;;;;;;;;;28.00;27.25;;;;;;;;6490973;39;8908;-61
2023/09/25 17:09:20;;;;;;;;;25.00;23.75;;;;;;;;6490330;39;8841;-59
2023/09/25 17:15:23;;;;;;;;;29.75;25.75;;;;;;;;6489939;46;8899;-57
2023/09/25 17:21:26;;;;;;;;;28.25;26.50;;;;;;;;6491423;39;9575;-59
2023/09/25 17:27:30;;;;;;;;;23.50;23.00;;;;;;;;6490231;46;8873;-60
2023/09/25 17:33:35;;;;;;;;;29.50;28.50;;;;;;;;6490223;31;8942;-60
2023/09/25 17:39:38;;;;;;;;;41.67;37.00;;;;;;;;6490574;39;8913;-63
2023/09/25 17:45:42;;;;;;;;;41.67;35.67;;;;;;;;6490786;39;8980;-60
2023/09/25 17:51:47;;;;;;;;;25.00;21.67;;;;;;;;6491393;39;9536;-58
2023/09/25 17:57:50;;;;;;;;;19.75;19.25;;;;;;;;6489844;39;8908;-56
2023/09/25 18:03:55;;;;;;;;;12.00;11.75;;;;;;;;6489071;39;8880;-60
2023/09/25 18:09:58;;;;;;;;;15.75;11.75;;;;;;;;6488937;39;9001;-59
2023/09/25 18:16:04;;;;;;;;;10.50;10.50;;;;;;;;6489423;46;8869;-58
2023/09/25 18:22:06;;;;;;;;;19.50;16.75;;;;;;;;6490665;39;8865;-58
2023/09/25 18:28:09;;;;;;;;;13.75;12.75;;;;;;;;6488782;46;8861;-58
2023/09/25 18:34:13;;;;;;;;;10.00;10.00;;;;;;;;6489579;39;8881;-57
2023/09/25 18:40:16;;;;;;;;;14.50;12.50;;;;;;;;6487531;39;8917;-58
2023/09/25 18:46:22;;;;;;;;;17.00;15.50;;;;;;;;6488278;39;8960;-57
2023/09/25 18:52:28;;;;;;;;;14.50;13.00;;;;;;;;6489563;39;8876;-59
2023/09/25 18:58:32;;;;;;;;;14.25;12.25;;;;;;;;6488981;39;8900;-59
2023/09/25 19:04:39;;;;;;;;;15.50;12.25;;;;;;;;6487596;46;8936;-59
2023/09/25 19:10:41;;;;;;;;;11.25;11.25;;;;;;;;6487337;46;8893;-59
2023/09/25 19:16:44;;;;;;;;;16.33;14.67;;;;;;;;6488466;39;8936;-58
2023/09/25 19:22:47;;;;;;;;;14.50;14.25;;;;;;;;6488661;31;9006;-59
2023/09/25 19:28:49;;;;;;;;;13.25;11.25;;;;;;;;6489270;39;8845;-57
2023/09/25 19:34:54;;;;;;;;;18.33;13.33;;;;;;;;6488098;46;8898;-58
2023/09/25 19:40:56;;;;;;;;;15.00;12.67;;;;;;;;6488904;39;8913;-58
2023/09/25 19:46:58;;;;;;;;;13.00;12.67;;;;;;;;6488574;39;8909;-58
2023/09/25 19:53:02;;;;;;;;;12.00;11.50;;;;;;;;6487201;46;8946;-57
2023/09/25 19:59:04;;;;;;;;;15.33;11.00;;;;;;;;6488872;39;8987;-59
2023/09/25 20:05:09;;;;;;;;;17.50;13.25;;;;;;;;6486866;31;9135;-60
2023/09/25 20:11:14;;;;;;;;;12.33;12.00;;;;;;;;6488547;31;8881;-58
2023/09/25 20:17:17;;;;;;;;;14.50;11.75;;;;;;;;6488350;47;8983;-59
2023/09/25 20:23:20;;;;;;;;;12.75;10.25;;;;;;;;6487339;47;8904;-60
2023/09/25 20:29:23;;;;;;;;;10.00;9.00;;;;;;;;6488352;39;8877;-59
2023/09/25 20:35:31;;;;;;;;;14.75;11.75;;;;;;;;6488731;46;8912;-57
2023/09/25 20:41:34;;;;;;;;;12.75;12.00;;;;;;;;6489823;39;9644;-57
2023/09/25 20:47:37;;;;;;;;;10.67;10.67;;;;;;;;6489352;39;9547;-59
2023/09/25 20:53:48;;;;;;;;;4.67;3.00;;;;;;;;6490144;39;8920;-59
2023/09/25 20:59:52;;;;;;;;;14.33;13.00;;;;;;;;6490204;31;8893;-58
2023/09/25 21:05:54;;;;;;;;;13.50;12.00;;;;;;;;6489711;39;9504;-57
2023/09/25 21:11:58;;;;;;;;;18.00;13.33;;;;;;;;6489200;46;8888;-59
2023/09/25 21:18:01;;;;;;;;;13.00;12.67;;;;;;;;6507791;36;8840;-59
2023/09/25 21:24:04;;;;;;;;;14.00;9.00;;;;;;;;6489000;46;8914;-58
2023/09/25 21:30:08;;;;;;;;;10.33;8.67;;;;;;;;6489438;46;8913;-58
2023/09/25 21:36:10;;;;;;;;;13.00;13.00;;;;;;;;6490308;31;8882;-57
2023/09/25 21:42:12;;;;;;;;;10.00;8.33;;;;;;;;6489825;39;10041;-58
2023/09/25 21:48:18;;;;;;;;;14.00;8.00;;;;;;;;6489210;46;8875;-59
2023/09/25 21:54:20;;;;;;;;;10.67;9.33;;;;;;;;6488331;46;8886;-59
2023/09/25 22:00:23;;;;;;;;;8.33;7.67;;;;;;;;6488533;39;8949;-60
2023/09/25 22:06:28;;;;;;;;;13.00;10.33;;;;;;;;6488704;46;8886;-59
2023/09/25 22:12:33;;;;;;;;;10.00;10.00;;;;;;;;6489183;39;8843;-58
2023/09/25 22:18:38;;;;;;;;;11.33;11.33;;;;;;;;6489224;46;8870;-58
2023/09/25 22:24:41;;;;;;;;;15.00;11.67;;;;;;;;6489071;39;8859;-58
2023/09/25 22:30:44;;;;;;;;;14.00;12.00;;;;;;;;6488756;39;8923;-58
2023/09/25 22:36:46;;;;;;;;;13.67;12.00;;;;;;;;6488181;39;8875;-59
2023/09/25 22:42:48;;;;;;;;;12.33;11.67;;;;;;;;6487995;46;8946;-56
2023/09/25 22:48:51;;;;;;;;;17.00;14.00;;;;;;;;6489273;46;9078;-58
2023/09/25 22:54:53;;;;;;;;;12.00;10.33;;;;;;;;6488551;47;8929;-59
2023/09/25 23:00:56;;;;;;;;;12.00;11.00;;;;;;;;6489303;31;9028;-58
2023/09/25 23:07:00;;;;;;;;;12.00;11.00;;;;;;;;6488065;39;9594;-58
2023/09/25 23:13:04;;;;;;;;;10.33;9.00;;;;;;;;6488569;39;8973;-57
2023/09/25 23:19:07;;;;;;;;;14.33;12.00;;;;;;;;6488865;46;8863;-58
2023/09/25 23:25:10;;;;;;;;;14.00;11.67;;;;;;;;6487275;31;8890;-60
2023/09/25 23:31:12;;;;;;;;;10.00;9.33;;;;;;;;6487869;31;8883;-58
2023/09/25 23:37:16;;;;;;;;;11.33;8.33;;;;;;;;6488317;31;8886;-58
2023/09/25 23:43:19;;;;;;;;;14.67;14.67;;;;;;;;6488592;46;8948;-58
2023/09/25 23:49:21;;;;;;;;;11.67;11.67;;;;;;;;6488831;31;8908;-57
2023/09/25 23:55:24;;;;;;;;;11.67;10.67;;;;;;;;6487073;46;8865;-58
